Time,TemperatureF,DewpointF,PressureIn,WindDirection,WindDirectionDegrees,WindSpeedMPH,WindSpeedGustMPH,Humidity,HourlyPrecipIn,Conditions,Clouds,dailyrainin,SoftwareType,DateUTC
2013-03-22 00:03:00,24.0,18.0,30.01,NW,314,0.0,0.0,79,0.00,,,0.01,,2013-03-22 04:03:00,
2013-03-22 00:12:00,24.0,18.0,30.01,NW,314,0.0,0.0,79,0.00,,,0.01,,2013-03-22 04:12:00,
2013-03-22 00:23:00,23.0,18.0,30.01,NW,313,0.0,0.0,80,0.00,,,0.01,,2013-03-22 04:23:00,
2013-03-22 00:32:00,23.0,18.0,30.01,NW,314,0.0,0.0,81,0.00,,,0.01,,2013-03-22 04:32:00,
2013-03-22 00:43:00,23.0,18.0,30.01,NW,314,0.0,0.0,81,0.00,,,0.01,,2013-03-22 04:43:00,
2013-03-22 00:52:00,22.0,17.0,30.01,NW,313,0.0,0.0,81,0.00,,,0.01,,2013-03-22 04:52:00,
2013-03-22 01:02:00,22.0,17.0,30.01,NW,313,0.0,0.0,82,0.00,,,0.01,,2013-03-22 05:02:00,
2013-03-22 01:12:00,22.0,17.0,30.01,NW,313,0.0,0.0,82,0.00,,,0.01,,2013-03-22 05:12:00,
2013-03-22 01:22:00,22.0,18.0,30.01,NW,314,0.0,0.0,83,0.00,,,0.01,,2013-03-22 05:22:00,
2013-03-22 01:32:00,23.0,18.0,30.01,NNW,345,2.0,3.0,81,0.00,,,0.01,,2013-03-22 05:32:00,
2013-03-22 01:42:00,23.0,18.0,30.01,NNW,345,2.0,3.0,81,0.00,,,0.01,,2013-03-22 05:42:00,
2013-03-22 01:52:00,21.0,17.0,30.01,WSW,252,0.0,0.0,85,0.00,,,0.01,,2013-03-22 05:52:00,
2013-03-22 02:02:00,21.0,17.0,30.01,WSW,252,0.0,1.0,86,0.00,,,0.01,,2013-03-22 06:02:00,
2013-03-22 02:13:00,21.0,17.0,30.01,WSW,252,0.0,1.0,86,0.00,,,0.01,,2013-03-22 06:13:00,
2013-03-22 02:22:00,21.0,18.0,30.01,SSW,205,0.0,1.0,88,0.00,,,0.01,,2013-03-22 06:22:00,
2013-03-22 02:32:00,22.0,19.0,30.01,SSW,208,0.0,1.0,88,0.00,,,0.01,,2013-03-22 06:32:00,
2013-03-22 02:42:00,22.0,19.0,30.01,SSW,208,0.0,1.0,88,0.00,,,0.01,,2013-03-22 06:42:00,
2013-03-22 02:52:00,21.0,18.0,30.01,SSW,212,0.0,1.0,87,0.00,,,0.01,,2013-03-22 06:52:00,
2013-03-22 03:03:00,21.0,18.0,30.01,SW,219,1.0,4.0,88,0.00,,,0.01,,2013-03-22 07:03:00,
2013-03-22 03:12:00,21.0,18.0,30.01,SW,219,1.0,4.0,88,0.00,,,0.01,,2013-03-22 07:12:00,
2013-03-22 03:22:00,22.0,18.0,30.01,West,272,0.0,3.0,86,0.00,,,0.01,,2013-03-22 07:22:00,
2013-03-22 03:32:00,22.0,18.0,30.01,WSW,249,0.0,1.0,85,0.00,,,0.01,,2013-03-22 07:32:00,
2013-03-22 03:42:00,22.0,18.0,30.01,WSW,249,0.0,1.0,85,0.00,,,0.01,,2013-03-22 07:42:00,
2013-03-22 03:52:00,22.0,19.0,30.01,SSW,199,2.0,3.0,87,0.00,,,0.01,,2013-03-22 07:52:00,
2013-03-22 04:03:00,22.0,19.0,30.01,WSW,240,0.0,2.0,87,0.00,,,0.01,,2013-03-22 08:03:00,
2013-03-22 04:13:00,22.0,19.0,30.01,WSW,240,0.0,2.0,87,0.00,,,0.01,,2013-03-22 08:13:00,
2013-03-22 04:22:00,22.0,19.0,30.01,SSW,211,1.0,3.0,87,0.00,,,0.01,,2013-03-22 08:22:00,
2013-03-22 04:32:00,22.0,18.0,30.01,WSW,238,1.0,2.0,86,0.00,,,0.01,,2013-03-22 08:32:00,
2013-03-22 04:42:00,22.0,18.0,30.01,WSW,238,1.0,2.0,86,0.00,,,0.01,,2013-03-22 08:42:00,
2013-03-22 04:52:00,22.0,18.0,30.01,SSW,201,2.0,3.0,86,0.00,,,0.01,,2013-03-22 08:52:00,
2013-03-22 05:02:00,22.0,18.0,30.01,WSW,241,0.0,2.0,85,0.00,,,0.01,,2013-03-22 09:02:00,
2013-03-22 05:12:00,22.0,18.0,30.01,WSW,241,0.0,2.0,85,0.00,,,0.01,,2013-03-22 09:12:00,
2013-03-22 05:22:00,21.0,17.0,30.01,SW,233,0.0,2.0,86,0.00,,,0.01,,2013-03-22 09:22:00,
2013-03-22 05:32:00,22.0,18.0,30.01,WSW,237,1.0,2.0,85,0.00,,,0.01,,2013-03-22 09:32:00,
2013-03-22 05:42:00,22.0,18.0,30.01,WSW,237,1.0,2.0,85,0.00,,,0.01,,2013-03-22 09:42:00,
2013-03-22 05:53:00,21.0,17.0,30.01,WSW,244,1.0,2.0,85,0.00,,,0.01,,2013-03-22 09:53:00,
2013-03-22 06:04:00,21.0,18.0,30.01,SW,214,1.0,2.0,87,0.00,,,0.01,,2013-03-22 10:04:00,
2013-03-22 06:12:00,21.0,18.0,30.01,SW,214,1.0,2.0,87,0.00,,,0.01,,2013-03-22 10:12:00,
2013-03-22 06:23:00,21.0,18.0,30.02,SW,224,0.0,3.0,87,0.00,,,0.01,,2013-03-22 10:23:00,
2013-03-22 06:33:00,21.0,18.0,30.02,WSW,257,0.0,1.0,87,0.00,,,0.01,,2013-03-22 10:33:00,
2013-03-22 06:42:00,21.0,18.0,30.02,WSW,257,0.0,1.0,87,0.00,,,0.01,,2013-03-22 10:42:00,
2013-03-22 06:52:00,21.0,18.0,30.02,West,259,0.0,2.0,87,0.00,,,0.01,,2013-03-22 10:52:00,
2013-03-22 07:03:00,21.0,18.0,30.02,WSW,249,0.0,1.0,87,0.00,,,0.01,,2013-03-22 11:03:00,
2013-03-22 07:12:00,21.0,18.0,30.02,WSW,249,0.0,1.0,87,0.00,,,0.01,,2013-03-22 11:12:00,
2013-03-22 07:22:00,20.0,17.0,30.03,WSW,238,0.0,1.0,89,0.00,,,0.01,,2013-03-22 11:22:00,
2013-03-22 07:33:00,20.0,17.0,30.03,SW,235,0.0,1.0,89,0.00,,,0.01,,2013-03-22 11:33:00,
2013-03-22 07:42:00,20.0,17.0,30.03,SW,235,0.0,1.0,89,0.00,,,0.01,,2013-03-22 11:42:00,
2013-03-22 07:52:00,20.0,17.0,30.03,SW,215,0.0,1.0,89,0.00,,,0.01,,2013-03-22 11:52:00,
2013-03-22 08:02:00,20.0,17.0,30.03,SW,216,1.0,2.0,89,0.00,,,0.01,,2013-03-22 12:02:00,
2013-03-22 08:12:00,20.0,17.0,30.03,SW,216,1.0,2.0,89,0.00,,,0.01,,2013-03-22 12:12:00,
2013-03-22 08:22:00,20.0,17.0,30.03,SW,218,0.0,1.0,89,0.00,,,0.01,,2013-03-22 12:22:00,
2013-03-22 08:32:00,21.0,18.0,30.03,SW,221,0.0,1.0,89,0.00,,,0.01,,2013-03-22 12:32:00,
2013-03-22 08:42:00,21.0,18.0,30.03,SW,221,0.0,1.0,89,0.00,,,0.01,,2013-03-22 12:42:00,
2013-03-22 08:52:00,22.0,19.0,30.03,WSW,241,0.0,2.0,89,0.00,,,0.01,,2013-03-22 12:52:00,
2013-03-22 09:02:00,23.0,20.0,30.02,WSW,248,1.0,2.0,88,0.00,,,0.01,,2013-03-22 13:02:00,
2013-03-22 09:12:00,23.0,20.0,30.02,WSW,248,1.0,2.0,88,0.00,,,0.01,,2013-03-22 13:12:00,
2013-03-22 09:22:00,24.0,20.0,30.02,SW,236,1.0,2.0,86,0.00,,,0.01,,2013-03-22 13:22:00,
2013-03-22 09:32:00,25.0,21.0,30.03,WSW,255,1.0,3.0,85,0.00,,,0.01,,2013-03-22 13:32:00,
2013-03-22 09:42:00,25.0,21.0,30.03,WSW,255,1.0,3.0,85,0.00,,,0.01,,2013-03-22 13:42:00,
2013-03-22 09:53:00,26.0,22.0,30.03,WSW,253,3.0,7.0,83,0.00,,,0.01,,2013-03-22 13:53:00,
2013-03-22 10:03:00,27.0,22.0,30.03,West,263,2.0,4.0,80,0.00,,,0.01,,2013-03-22 14:03:00,
2013-03-22 10:12:00,27.0,22.0,30.03,West,263,2.0,4.0,80,0.00,,,0.01,,2013-03-22 14:12:00,
2013-03-22 10:22:00,28.0,22.0,30.03,West,259,3.0,5.0,78,0.00,,,0.01,,2013-03-22 14:22:00,
2013-03-22 10:32:00,29.0,22.0,30.03,NNW,340,4.0,6.0,75,0.00,,,0.01,,2013-03-22 14:32:00,
2013-03-22 10:43:00,29.0,22.0,30.03,NNW,340,4.0,6.0,75,0.00,,,0.01,,2013-03-22 14:43:00,
2013-03-22 10:52:00,29.0,21.0,30.03,NNW,332,4.0,7.0,73,0.00,,,0.01,,2013-03-22 14:52:00,
2013-03-22 11:03:00,30.0,22.0,30.02,NNW,330,3.0,11.0,71,0.00,,,0.01,,2013-03-22 15:03:00,
2013-03-22 11:12:00,30.0,22.0,30.02,NNW,330,3.0,11.0,71,0.00,,,0.01,,2013-03-22 15:12:00,
2013-03-22 11:22:00,31.0,22.0,30.02,SSW,198,2.0,7.0,68,0.00,,,0.01,,2013-03-22 15:22:00,
2013-03-22 11:33:00,31.0,21.0,30.03,WNW,297,4.0,12.0,65,0.00,,,0.01,,2013-03-22 15:33:00,
2013-03-22 11:43:00,31.0,21.0,30.03,WNW,297,4.0,12.0,65,0.00,,,0.01,,2013-03-22 15:43:00,
2013-03-22 11:53:00,32.0,20.0,30.03,North,1,4.0,7.0,62,0.00,,,0.01,,2013-03-22 15:53:00,
2013-03-22 12:03:00,33.0,21.0,30.03,SW,221,5.0,9.0,60,0.00,,,0.01,,2013-03-22 16:03:00,
2013-03-22 12:13:00,33.0,21.0,30.03,SW,221,5.0,9.0,60,0.00,,,0.01,,2013-03-22 16:13:00,
2013-03-22 12:23:00,34.0,20.0,30.03,NW,315,2.0,8.0,57,0.00,,,0.01,,2013-03-22 16:23:00,
2013-03-22 12:32:00,35.0,20.0,30.03,WSW,241,4.0,8.0,55,0.00,,,0.01,,2013-03-22 16:32:00,
2013-03-22 12:42:00,35.0,20.0,30.03,WSW,241,4.0,8.0,55,0.00,,,0.01,,2013-03-22 16:42:00,
2013-03-22 12:52:00,36.0,21.0,30.03,WSW,257,6.0,8.0,53,0.00,,,0.01,,2013-03-22 16:52:00,
2013-03-22 13:03:00,36.0,20.0,30.03,NW,307,6.0,9.0,52,0.00,,,0.01,,2013-03-22 17:03:00,
2013-03-22 13:12:00,36.0,20.0,30.03,WSW,249,5.0,9.0,52,0.00,,,0.01,,2013-03-22 17:12:00,
2013-03-22 13:23:00,36.0,20.0,30.03,WSW,249,5.0,9.0,52,0.00,,,0.01,,2013-03-22 17:23:00,
2013-03-22 13:32:00,37.0,20.0,30.03,NNW,340,4.0,10.0,50,0.00,,,0.01,,2013-03-22 17:32:00,
2013-03-22 13:42:00,37.0,20.0,30.03,NNW,340,4.0,10.0,50,0.00,,,0.01,,2013-03-22 17:42:00,
2013-03-22 13:53:00,37.0,18.0,30.03,WNW,296,6.0,10.0,46,0.00,,,0.01,,2013-03-22 17:53:00,
2013-03-22 14:02:00,37.0,19.0,30.02,West,276,6.0,10.0,48,0.00,,,0.01,,2013-03-22 18:02:00,
2013-03-22 14:12:00,37.0,19.0,30.02,West,276,6.0,10.0,48,0.00,,,0.01,,2013-03-22 18:12:00,
2013-03-22 14:22:00,38.0,19.0,30.01,West,278,5.0,9.0,46,0.00,,,0.01,,2013-03-22 18:22:00,
2013-03-22 14:33:00,38.0,19.0,30.01,NW,318,4.0,10.0,46,0.00,,,0.01,,2013-03-22 18:33:00,
2013-03-22 14:42:00,38.0,19.0,30.01,NW,318,4.0,10.0,46,0.00,,,0.01,,2013-03-22 18:42:00,
2013-03-22 14:52:00,39.0,20.0,30.01,WNW,285,7.0,13.0,46,0.00,,,0.01,,2013-03-22 18:52:00,
2013-03-22 15:02:00,40.0,19.0,30.01,NW,311,6.0,10.0,42,0.00,,,0.01,,2013-03-22 19:02:00,
2013-03-22 15:12:00,40.0,19.0,30.01,NW,311,6.0,10.0,42,0.00,,,0.01,,2013-03-22 19:12:00,
2013-03-22 15:22:00,39.0,19.0,30.00,WSW,249,4.0,11.0,44,0.00,,,0.01,,2013-03-22 19:22:00,
2013-03-22 15:32:00,40.0,19.0,29.99,West,274,6.0,10.0,43,0.00,,,0.01,,2013-03-22 19:32:00,
2013-03-22 15:42:00,40.0,19.0,29.99,West,274,6.0,10.0,43,0.00,,,0.01,,2013-03-22 19:42:00,
2013-03-22 15:52:00,40.0,19.0,29.99,NW,319,6.0,11.0,43,0.00,,,0.01,,2013-03-22 19:52:00,
2013-03-22 16:02:00,40.0,19.0,29.98,NNW,333,4.0,11.0,42,0.00,,,0.01,,2013-03-22 20:02:00,
2013-03-22 16:12:00,40.0,19.0,29.98,NNW,333,4.0,11.0,42,0.00,,,0.01,,2013-03-22 20:12:00,
2013-03-22 16:22:00,41.0,19.0,29.98,WSW,255,4.0,8.0,41,0.00,,,0.00,,2013-03-22 20:22:00,
2013-03-22 16:32:00,41.0,20.0,29.98,WNW,297,6.0,8.0,42,0.00,,,0.00,,2013-03-22 20:32:00,
2013-03-22 16:43:00,41.0,20.0,29.98,WNW,297,6.0,8.0,42,0.00,,,0.00,,2013-03-22 20:43:00,
2013-03-22 16:52:00,42.0,20.0,29.97,WSW,239,4.0,10.0,41,0.00,,,0.00,,2013-03-22 20:52:00,
2013-03-22 17:03:00,42.0,19.0,29.97,NW,319,5.0,9.0,39,0.00,,,0.00,,2013-03-22 21:03:00,
2013-03-22 17:12:00,42.0,20.0,29.97,WNW,283,5.0,10.0,41,0.00,,,0.00,,2013-03-22 21:12:00,
2013-03-22 17:22:00,42.0,20.0,29.97,WNW,283,5.0,10.0,41,0.00,,,0.00,,2013-03-22 21:22:00,
2013-03-22 17:33:00,42.0,19.0,29.97,WNW,297,1.0,8.0,40,0.00,,,0.00,,2013-03-22 21:33:00,
2013-03-22 17:43:00,42.0,19.0,29.97,WNW,297,1.0,8.0,40,0.00,,,0.00,,2013-03-22 21:43:00,
2013-03-22 17:53:00,42.0,19.0,29.97,WNW,301,5.0,13.0,39,0.00,,,0.00,,2013-03-22 21:53:00,
2013-03-22 18:03:00,42.0,19.0,29.97,WNW,298,4.0,8.0,39,0.00,,,0.00,,2013-03-22 22:03:00,
2013-03-22 18:12:00,42.0,19.0,29.97,WNW,298,4.0,8.0,39,0.00,,,0.00,,2013-03-22 22:12:00,
2013-03-22 18:23:00,43.0,20.0,29.98,WNW,290,4.0,8.0,39,0.00,,,0.00,,2013-03-22 22:23:00,
2013-03-22 18:32:00,42.0,18.0,29.98,WNW,287,3.0,7.0,38,0.00,,,0.00,,2013-03-22 22:32:00,
2013-03-22 18:43:00,42.0,18.0,29.98,WNW,287,3.0,7.0,38,0.00,,,0.00,,2013-03-22 22:43:00,
2013-03-22 18:53:00,42.0,18.0,29.98,WNW,293,3.0,10.0,38,0.00,,,0.00,,2013-03-22 22:53:00,
2013-03-22 19:02:00,42.0,21.0,29.98,NNW,338,6.0,8.0,42,0.00,,,0.00,,2013-03-22 23:02:00,
2013-03-22 19:12:00,42.0,21.0,29.98,NNW,338,6.0,8.0,42,0.00,,,0.00,,2013-03-22 23:12:00,
2013-03-22 19:22:00,40.0,22.0,29.99,NNW,330,5.0,9.0,48,0.00,,,0.00,,2013-03-22 23:22:00,
2013-03-22 19:32:00,39.0,21.0,30.00,NE,34,3.0,10.0,48,0.00,,,0.00,,2013-03-22 23:32:00,
2013-03-22 19:42:00,39.0,21.0,30.00,NE,34,3.0,10.0,48,0.00,,,0.00,,2013-03-22 23:42:00,
2013-03-22 19:52:00,38.0,20.0,30.00,NNW,332,4.0,8.0,47,0.00,,,0.00,,2013-03-22 23:52:00,
2013-03-22 20:02:00,37.0,20.0,30.01,NNE,22,3.0,7.0,49,0.00,,,0.00,,2013-03-23 00:02:00,
2013-03-22 20:12:00,37.0,20.0,30.01,NNE,22,3.0,7.0,49,0.00,,,0.00,,2013-03-23 00:12:00,
2013-03-22 20:23:00,36.0,19.0,30.01,NNW,338,3.0,6.0,50,0.00,,,0.00,,2013-03-23 00:23:00,
2013-03-22 20:33:00,35.0,19.0,30.01,NNE,13,2.0,5.0,51,0.00,,,0.00,,2013-03-23 00:33:00,
2013-03-22 20:42:00,35.0,19.0,30.01,NNE,13,2.0,5.0,51,0.00,,,0.00,,2013-03-23 00:42:00,
2013-03-22 20:52:00,34.0,18.0,30.02,NNW,330,2.0,5.0,52,0.00,,,0.00,,2013-03-23 00:52:00,
2013-03-22 21:03:00,34.0,20.0,30.02,North,349,2.0,3.0,56,0.00,,,0.00,,2013-03-23 01:03:00,
2013-03-22 21:12:00,34.0,20.0,30.02,North,349,2.0,3.0,56,0.00,,,0.00,,2013-03-23 01:12:00,
2013-03-22 21:22:00,33.0,19.0,30.03,North,355,2.0,3.0,55,0.00,,,0.00,,2013-03-23 01:22:00,
2013-03-22 21:32:00,33.0,19.0,30.02,NNW,334,0.0,2.0,55,0.00,,,0.00,,2013-03-23 01:32:00,
2013-03-22 21:42:00,33.0,19.0,30.02,NNW,334,0.0,2.0,55,0.00,,,0.00,,2013-03-23 01:42:00,
2013-03-22 21:52:00,32.0,18.0,30.02,North,354,0.0,1.0,55,0.00,,,0.00,,2013-03-23 01:52:00,
2013-03-22 22:02:00,31.0,18.0,30.02,North,353,0.0,0.0,57,0.00,,,0.00,,2013-03-23 02:02:00,
2013-03-22 22:12:00,31.0,18.0,30.02,North,353,0.0,0.0,57,0.00,,,0.00,,2013-03-23 02:12:00,
2013-03-22 22:22:00,30.0,17.0,30.02,North,353,0.0,0.0,59,0.00,,,0.00,,2013-03-23 02:22:00,
2013-03-22 22:32:00,28.0,18.0,30.02,North,353,0.0,1.0,67,0.00,,,0.00,,2013-03-23 02:32:00,
2013-03-22 22:42:00,28.0,18.0,30.02,North,353,0.0,1.0,67,0.00,,,0.00,,2013-03-23 02:42:00,
2013-03-22 22:52:00,28.0,18.0,30.03,North,353,0.0,0.0,66,0.00,,,0.00,,2013-03-23 02:52:00,
2013-03-22 23:02:00,26.0,19.0,30.03,North,353,0.0,0.0,75,0.00,,,0.00,,2013-03-23 03:02:00,
2013-03-22 23:12:00,26.0,19.0,30.03,North,353,0.0,0.0,75,0.00,,,0.00,,2013-03-23 03:12:00,
2013-03-22 23:23:00,26.0,22.0,30.04,North,353,0.0,0.0,83,0.00,,,0.00,,2013-03-23 03:23:00,
2013-03-22 23:33:00,25.0,20.0,30.04,North,353,0.0,0.0,81,0.00,,,0.00,,2013-03-23 03:33:00,
2013-03-22 23:43:00,25.0,20.0,30.04,North,353,0.0,0.0,81,0.00,,,0.00,,2013-03-23 03:43:00,
2013-03-22 23:53:00,25.0,21.0,30.05,North,353,0.0,0.0,84,0.00,,,0.00,,2013-03-23 03:53:00,